sensor_id;sensor_type;location;lat;lon;timestamp;temperature;humidity
4354;DHT22;11018;51.258;6.806;2022-12-29T00:01:36;11.40;87.60
4354;DHT22;11018;51.258;6.806;2022-12-29T00:04:02;11.40;86.40
4354;DHT22;11018;51.258;6.806;2022-12-29T00:06:31;11.40;87.20
4354;DHT22;11018;51.258;6.806;2022-12-29T00:08:56;11.40;87.30
4354;DHT22;11018;51.258;6.806;2022-12-29T00:11:25;11.40;87.40
4354;DHT22;11018;51.258;6.806;2022-12-29T00:13:51;11.40;88.30
4354;DHT22;11018;51.258;6.806;2022-12-29T00:16:35;11.40;87.90
4354;DHT22;11018;51.258;6.806;2022-12-29T00:19:02;11.50;86.90
4354;DHT22;11018;51.258;6.806;2022-12-29T00:21:28;11.40;87.40
4354;DHT22;11018;51.258;6.806;2022-12-29T00:29:47;11.60;86.20
4354;DHT22;11018;51.258;6.806;2022-12-29T00:32:31;11.50;86.50
4354;DHT22;11018;51.258;6.806;2022-12-29T00:35:29;11.50;88.20
4354;DHT22;11018;51.258;6.806;2022-12-29T00:38:01;11.40;90.00
4354;DHT22;11018;51.258;6.806;2022-12-29T00:40:46;11.50;89.50
4354;DHT22;11018;51.258;6.806;2022-12-29T00:43:31;11.60;89.70
4354;DHT22;11018;51.258;6.806;2022-12-29T00:46:15;11.60;88.80
4354;DHT22;11018;51.258;6.806;2022-12-29T00:48:40;11.60;88.90
4354;DHT22;11018;51.258;6.806;2022-12-29T00:51:24;11.60;87.30
4354;DHT22;11018;51.258;6.806;2022-12-29T00:53:50;11.80;82.20
4354;DHT22;11018;51.258;6.806;2022-12-29T00:56:16;11.80;81.50
4354;DHT22;11018;51.258;6.806;2022-12-29T00:58:41;11.90;81.00
4354;DHT22;11018;51.258;6.806;2022-12-29T01:01:08;11.80;81.20
4354;DHT22;11018;51.258;6.806;2022-12-29T01:03:35;11.90;80.70
4354;DHT22;11018;51.258;6.806;2022-12-29T01:06:05;11.90;79.40
4354;DHT22;11018;51.258;6.806;2022-12-29T01:08:31;11.90;78.50
4354;DHT22;11018;51.258;6.806;2022-12-29T01:10:59;11.90;78.80
4354;DHT22;11018;51.258;6.806;2022-12-29T01:13:24;12.00;78.70
4354;DHT22;11018;51.258;6.806;2022-12-29T01:15:51;11.90;78.50
4354;DHT22;11018;51.258;6.806;2022-12-29T01:18:16;11.90;79.50
4354;DHT22;11018;51.258;6.806;2022-12-29T01:20:42;11.90;79.00
4354;DHT22;11018;51.258;6.806;2022-12-29T01:23:07;11.90;77.90
4354;DHT22;11018;51.258;6.806;2022-12-29T01:25:33;12.00;75.80
4354;DHT22;11018;51.258;6.806;2022-12-29T01:27:59;12.10;74.10
4354;DHT22;11018;51.258;6.806;2022-12-29T01:30:24;12.20;73.30
4354;DHT22;11018;51.258;6.806;2022-12-29T01:32:50;12.20;73.10
4354;DHT22;11018;51.258;6.806;2022-12-29T01:35:15;12.30;71.80
4354;DHT22;11018;51.258;6.806;2022-12-29T01:37:41;12.30;70.00
4354;DHT22;11018;51.258;6.806;2022-12-29T01:40:07;12.40;69.00
4354;DHT22;11018;51.258;6.806;2022-12-29T01:42:32;12.40;67.80
4354;DHT22;11018;51.258;6.806;2022-12-29T01:45:02;12.40;67.30
4354;DHT22;11018;51.258;6.806;2022-12-29T01:47:36;12.40;66.90
4354;DHT22;11018;51.258;6.806;2022-12-29T01:50:28;12.40;67.10
4354;DHT22;11018;51.258;6.806;2022-12-29T01:53:03;12.40;65.10
4354;DHT22;11018;51.258;6.806;2022-12-29T01:55:36;12.50;64.70
4354;DHT22;11018;51.258;6.806;2022-12-29T01:58:04;12.50;63.50
4354;DHT22;11018;51.258;6.806;2022-12-29T02:00:31;12.50;63.60
4354;DHT22;11018;51.258;6.806;2022-12-29T02:02:57;12.40;63.00
4354;DHT22;11018;51.258;6.806;2022-12-29T02:05:38;12.40;62.80
4354;DHT22;11018;51.258;6.806;2022-12-29T02:08:04;12.40;62.20
4354;DHT22;11018;51.258;6.806;2022-12-29T02:10:32;12.40;60.60
4354;DHT22;11018;51.258;6.806;2022-12-29T02:12:59;12.50;60.60
4354;DHT22;11018;51.258;6.806;2022-12-29T02:15:48;12.50;59.60
4354;DHT22;11018;51.258;6.806;2022-12-29T02:24:17;12.40;58.90
4354;DHT22;11018;51.258;6.806;2022-12-29T02:27:12;12.50;57.90
4354;DHT22;11018;51.258;6.806;2022-12-29T02:33:34;12.50;54.80
4354;DHT22;11018;51.258;6.806;2022-12-29T02:35:41;12.60;54.30
4354;DHT22;11018;51.258;6.806;2022-12-29T02:38:31;12.60;54.50
4354;DHT22;11018;51.258;6.806;2022-12-29T02:41:06;12.50;54.50
4354;DHT22;11018;51.258;6.806;2022-12-29T02:43:50;12.50;54.00
4354;DHT22;11018;51.258;6.806;2022-12-29T02:46:22;12.60;53.30
4354;DHT22;11018;51.258;6.806;2022-12-29T02:51:58;12.60;53.70
4354;DHT22;11018;51.258;6.806;2022-12-29T02:54:26;12.60;52.80
4354;DHT22;11018;51.258;6.806;2022-12-29T02:57:28;12.70;52.60
4354;DHT22;11018;51.258;6.806;2022-12-29T03:02:43;12.70;52.90
4354;DHT22;11018;51.258;6.806;2022-12-29T03:05:53;12.60;53.50
4354;DHT22;11018;51.258;6.806;2022-12-29T03:08:52;12.70;53.20
4354;DHT22;11018;51.258;6.806;2022-12-29T03:11:20;12.70;53.30
4354;DHT22;11018;51.258;6.806;2022-12-29T03:14:13;12.70;53.60
4354;DHT22;11018;51.258;6.806;2022-12-29T03:17:05;12.70;54.00
4354;DHT22;11018;51.258;6.806;2022-12-29T03:19:36;12.70;54.90
4354;DHT22;11018;51.258;6.806;2022-12-29T03:22:09;12.70;54.30
4354;DHT22;11018;51.258;6.806;2022-12-29T03:24:56;12.70;54.40
4354;DHT22;11018;51.258;6.806;2022-12-29T03:27:27;12.70;54.60
4354;DHT22;11018;51.258;6.806;2022-12-29T03:30:00;12.70;55.00
4354;DHT22;11018;51.258;6.806;2022-12-29T03:32:32;12.70;54.30
4354;DHT22;11018;51.258;6.806;2022-12-29T03:34:59;12.80;54.20
4354;DHT22;11018;51.258;6.806;2022-12-29T03:37:30;12.80;54.50
4354;DHT22;11018;51.258;6.806;2022-12-29T03:39:57;12.70;55.50
4354;DHT22;11018;51.258;6.806;2022-12-29T03:42:26;12.80;54.90
4354;DHT22;11018;51.258;6.806;2022-12-29T03:44:55;12.90;54.50
4354;DHT22;11018;51.258;6.806;2022-12-29T03:47:24;12.80;54.10
4354;DHT22;11018;51.258;6.806;2022-12-29T03:49:51;12.90;54.20
4354;DHT22;11018;51.258;6.806;2022-12-29T03:52:17;12.80;54.20
4354;DHT22;11018;51.258;6.806;2022-12-29T03:54:43;12.90;53.70
4354;DHT22;11018;51.258;6.806;2022-12-29T03:57:09;12.80;53.90
4354;DHT22;11018;51.258;6.806;2022-12-29T03:59:35;12.90;53.80
4354;DHT22;11018;51.258;6.806;2022-12-29T04:02:01;12.90;53.30
4354;DHT22;11018;51.258;6.806;2022-12-29T04:04:26;13.00;53.00
4354;DHT22;11018;51.258;6.806;2022-12-29T04:06:52;13.00;53.50
4354;DHT22;11018;51.258;6.806;2022-12-29T04:09:17;12.90;53.60
4354;DHT22;11018;51.258;6.806;2022-12-29T04:11:43;12.90;54.30
4354;DHT22;11018;51.258;6.806;2022-12-29T04:14:08;12.90;54.30
4354;DHT22;11018;51.258;6.806;2022-12-29T04:16:34;12.90;54.60
4354;DHT22;11018;51.258;6.806;2022-12-29T04:19:01;12.80;55.20
4354;DHT22;11018;51.258;6.806;2022-12-29T04:21:27;12.90;54.70
4354;DHT22;11018;51.258;6.806;2022-12-29T04:23:53;12.90;54.20
4354;DHT22;11018;51.258;6.806;2022-12-29T04:26:18;12.90;53.50
4354;DHT22;11018;51.258;6.806;2022-12-29T04:28:44;13.00;53.20
4354;DHT22;11018;51.258;6.806;2022-12-29T04:31:10;13.00;53.90
4354;DHT22;11018;51.258;6.806;2022-12-29T04:33:35;13.00;53.00
4354;DHT22;11018;51.258;6.806;2022-12-29T04:36:01;12.90;52.70
4354;DHT22;11018;51.258;6.806;2022-12-29T04:38:26;12.90;52.70
4354;DHT22;11018;51.258;6.806;2022-12-29T04:40:52;12.80;52.90
4354;DHT22;11018;51.258;6.806;2022-12-29T04:43:18;12.80;53.00
4354;DHT22;11018;51.258;6.806;2022-12-29T04:45:47;12.80;52.70
4354;DHT22;11018;51.258;6.806;2022-12-29T04:48:13;12.80;52.30
4354;DHT22;11018;51.258;6.806;2022-12-29T04:50:40;12.70;53.50
4354;DHT22;11018;51.258;6.806;2022-12-29T04:53:05;12.70;52.20
4354;DHT22;11018;51.258;6.806;2022-12-29T04:55:31;12.80;51.00
4354;DHT22;11018;51.258;6.806;2022-12-29T04:57:57;12.90;49.80
4354;DHT22;11018;51.258;6.806;2022-12-29T05:00:22;12.90;49.00
4354;DHT22;11018;51.258;6.806;2022-12-29T05:02:48;13.00;48.80
4354;DHT22;11018;51.258;6.806;2022-12-29T05:05:14;13.00;49.10
4354;DHT22;11018;51.258;6.806;2022-12-29T05:07:39;12.90;48.90
4354;DHT22;11018;51.258;6.806;2022-12-29T05:10:06;13.00;49.10
4354;DHT22;11018;51.258;6.806;2022-12-29T05:12:33;13.00;48.70
4354;DHT22;11018;51.258;6.806;2022-12-29T05:14:59;13.00;48.80
4354;DHT22;11018;51.258;6.806;2022-12-29T05:17:25;12.90;48.90
4354;DHT22;11018;51.258;6.806;2022-12-29T05:19:51;12.90;49.30
4354;DHT22;11018;51.258;6.806;2022-12-29T05:22:17;13.00;48.80
4354;DHT22;11018;51.258;6.806;2022-12-29T05:24:42;13.00;48.60
4354;DHT22;11018;51.258;6.806;2022-12-29T05:27:08;13.00;48.80
4354;DHT22;11018;51.258;6.806;2022-12-29T05:29:34;12.90;49.20
4354;DHT22;11018;51.258;6.806;2022-12-29T05:31:59;13.00;49.00
4354;DHT22;11018;51.258;6.806;2022-12-29T05:34:25;12.90;49.50
4354;DHT22;11018;51.258;6.806;2022-12-29T05:36:51;12.80;49.60
4354;DHT22;11018;51.258;6.806;2022-12-29T05:39:16;12.80;49.50
4354;DHT22;11018;51.258;6.806;2022-12-29T05:41:42;12.80;49.60
4354;DHT22;11018;51.258;6.806;2022-12-29T05:44:07;12.70;50.40
4354;DHT22;11018;51.258;6.806;2022-12-29T05:46:34;12.60;50.90
4354;DHT22;11018;51.258;6.806;2022-12-29T05:49:00;12.60;51.00
4354;DHT22;11018;51.258;6.806;2022-12-29T05:51:25;12.60;50.80
4354;DHT22;11018;51.258;6.806;2022-12-29T05:53:51;12.60;50.60
4354;DHT22;11018;51.258;6.806;2022-12-29T05:56:16;12.70;50.60
4354;DHT22;11018;51.258;6.806;2022-12-29T05:58:42;12.70;49.40
4354;DHT22;11018;51.258;6.806;2022-12-29T06:01:08;12.80;48.80
4354;DHT22;11018;51.258;6.806;2022-12-29T06:03:33;12.80;48.70
4354;DHT22;11018;51.258;6.806;2022-12-29T06:05:59;12.80;48.20
4354;DHT22;11018;51.258;6.806;2022-12-29T06:08:24;12.80;47.60
4354;DHT22;11018;51.258;6.806;2022-12-29T06:10:50;12.80;48.40
4354;DHT22;11018;51.258;6.806;2022-12-29T06:13:15;12.80;46.90
4354;DHT22;11018;51.258;6.806;2022-12-29T06:15:41;12.80;47.10
4354;DHT22;11018;51.258;6.806;2022-12-29T06:18:07;12.80;46.60
4354;DHT22;11018;51.258;6.806;2022-12-29T06:20:33;12.70;47.30
4354;DHT22;11018;51.258;6.806;2022-12-29T06:22:58;12.60;48.00
4354;DHT22;11018;51.258;6.806;2022-12-29T06:25:24;12.50;48.80
4354;DHT22;11018;51.258;6.806;2022-12-29T06:27:49;12.30;49.60
4354;DHT22;11018;51.258;6.806;2022-12-29T06:30:15;12.30;50.40
4354;DHT22;11018;51.258;6.806;2022-12-29T06:32:42;12.20;50.30
4354;DHT22;11018;51.258;6.806;2022-12-29T06:35:08;12.20;51.30
4354;DHT22;11018;51.258;6.806;2022-12-29T06:37:34;12.10;52.10
4354;DHT22;11018;51.258;6.806;2022-12-29T06:40:00;12.10;51.80
4354;DHT22;11018;51.258;6.806;2022-12-29T06:42:25;12.20;50.90
4354;DHT22;11018;51.258;6.806;2022-12-29T06:44:51;12.20;51.10
4354;DHT22;11018;51.258;6.806;2022-12-29T06:47:17;12.30;50.50
4354;DHT22;11018;51.258;6.806;2022-12-29T06:49:43;12.40;49.90
4354;DHT22;11018;51.258;6.806;2022-12-29T06:52:09;12.40;49.30
4354;DHT22;11018;51.258;6.806;2022-12-29T06:54:35;12.40;48.60
4354;DHT22;11018;51.258;6.806;2022-12-29T06:57:00;12.40;48.50
4354;DHT22;11018;51.258;6.806;2022-12-29T06:59:26;12.40;48.20
4354;DHT22;11018;51.258;6.806;2022-12-29T07:01:52;12.50;47.20
4354;DHT22;11018;51.258;6.806;2022-12-29T07:04:17;12.50;46.40
4354;DHT22;11018;51.258;6.806;2022-12-29T07:06:43;12.40;46.40
4354;DHT22;11018;51.258;6.806;2022-12-29T07:09:09;12.40;46.60
4354;DHT22;11018;51.258;6.806;2022-12-29T07:11:35;12.40;46.90
4354;DHT22;11018;51.258;6.806;2022-12-29T07:14:01;12.50;46.50
4354;DHT22;11018;51.258;6.806;2022-12-29T07:16:27;12.40;46.40
4354;DHT22;11018;51.258;6.806;2022-12-29T07:18:54;12.30;46.30
4354;DHT22;11018;51.258;6.806;2022-12-29T07:21:20;12.30;46.00
4354;DHT22;11018;51.258;6.806;2022-12-29T07:23:46;12.10;46.70
4354;DHT22;11018;51.258;6.806;2022-12-29T07:26:13;12.10;46.20
4354;DHT22;11018;51.258;6.806;2022-12-29T07:28:39;12.00;47.00
4354;DHT22;11018;51.258;6.806;2022-12-29T07:31:05;11.90;48.10
4354;DHT22;11018;51.258;6.806;2022-12-29T07:33:32;12.00;48.80
4354;DHT22;11018;51.258;6.806;2022-12-29T07:35:58;12.00;49.00
4354;DHT22;11018;51.258;6.806;2022-12-29T07:38:24;12.00;47.80
4354;DHT22;11018;51.258;6.806;2022-12-29T07:40:50;12.10;47.30
4354;DHT22;11018;51.258;6.806;2022-12-29T07:43:15;12.10;47.80
4354;DHT22;11018;51.258;6.806;2022-12-29T07:45:41;12.10;46.00
4354;DHT22;11018;51.258;6.806;2022-12-29T07:48:07;12.20;45.00
4354;DHT22;11018;51.258;6.806;2022-12-29T07:50:34;12.30;43.50
4354;DHT22;11018;51.258;6.806;2022-12-29T07:52:59;12.30;43.60
4354;DHT22;11018;51.258;6.806;2022-12-29T07:55:25;12.30;43.20
4354;DHT22;11018;51.258;6.806;2022-12-29T07:57:53;12.30;42.60
4354;DHT22;11018;51.258;6.806;2022-12-29T08:00:19;12.30;42.90
4354;DHT22;11018;51.258;6.806;2022-12-29T08:02:45;12.30;42.20
4354;DHT22;11018;51.258;6.806;2022-12-29T08:05:10;12.30;42.40
4354;DHT22;11018;51.258;6.806;2022-12-29T08:07:36;12.30;41.80
4354;DHT22;11018;51.258;6.806;2022-12-29T08:10:01;12.20;42.10
4354;DHT22;11018;51.258;6.806;2022-12-29T08:12:27;12.20;42.40
4354;DHT22;11018;51.258;6.806;2022-12-29T08:14:53;12.20;42.90
4354;DHT22;11018;51.258;6.806;2022-12-29T08:17:18;12.10;43.60
4354;DHT22;11018;51.258;6.806;2022-12-29T08:19:43;12.00;43.60
4354;DHT22;11018;51.258;6.806;2022-12-29T08:22:09;12.00;43.80
4354;DHT22;11018;51.258;6.806;2022-12-29T08:24:35;12.00;43.50
4354;DHT22;11018;51.258;6.806;2022-12-29T08:27:00;11.90;44.70
4354;DHT22;11018;51.258;6.806;2022-12-29T08:29:27;11.90;45.10
4354;DHT22;11018;51.258;6.806;2022-12-29T08:31:52;12.00;44.20
4354;DHT22;11018;51.258;6.806;2022-12-29T08:34:18;12.20;42.90
4354;DHT22;11018;51.258;6.806;2022-12-29T08:36:43;12.20;43.10
4354;DHT22;11018;51.258;6.806;2022-12-29T08:39:09;12.20;45.50
4354;DHT22;11018;51.258;6.806;2022-12-29T08:41:35;12.20;50.70
4354;DHT22;11018;51.258;6.806;2022-12-29T08:44:00;11.90;53.50
4354;DHT22;11018;51.258;6.806;2022-12-29T08:46:26;11.70;55.20
4354;DHT22;11018;51.258;6.806;2022-12-29T08:48:52;11.60;55.80
4354;DHT22;11018;51.258;6.806;2022-12-29T08:51:18;11.50;55.40
4354;DHT22;11018;51.258;6.806;2022-12-29T08:53:43;11.50;56.60
4354;DHT22;11018;51.258;6.806;2022-12-29T08:56:09;11.60;53.60
4354;DHT22;11018;51.258;6.806;2022-12-29T08:58:36;11.70;53.00
4354;DHT22;11018;51.258;6.806;2022-12-29T09:01:03;11.80;51.80
4354;DHT22;11018;51.258;6.806;2022-12-29T09:03:28;11.80;51.20
4354;DHT22;11018;51.258;6.806;2022-12-29T09:05:55;11.80;49.50
4354;DHT22;11018;51.258;6.806;2022-12-29T09:08:21;11.80;49.40
4354;DHT22;11018;51.258;6.806;2022-12-29T09:10:47;12.00;46.00
4354;DHT22;11018;51.258;6.806;2022-12-29T09:13:14;12.00;46.70
4354;DHT22;11018;51.258;6.806;2022-12-29T09:15:40;11.90;48.20
4354;DHT22;11018;51.258;6.806;2022-12-29T09:18:07;11.90;48.30
4354;DHT22;11018;51.258;6.806;2022-12-29T09:20:33;11.90;47.60
4354;DHT22;11018;51.258;6.806;2022-12-29T09:22:59;11.90;48.10
4354;DHT22;11018;51.258;6.806;2022-12-29T09:25:25;12.00;47.30
4354;DHT22;11018;51.258;6.806;2022-12-29T09:27:51;12.10;47.10
4354;DHT22;11018;51.258;6.806;2022-12-29T09:30:22;12.10;45.90
4354;DHT22;11018;51.258;6.806;2022-12-29T09:32:48;12.20;45.00
4354;DHT22;11018;51.258;6.806;2022-12-29T09:35:14;12.20;44.80
4354;DHT22;11018;51.258;6.806;2022-12-29T09:37:41;12.30;44.40
4354;DHT22;11018;51.258;6.806;2022-12-29T09:40:09;12.40;42.80
4354;DHT22;11018;51.258;6.806;2022-12-29T09:45:44;12.40;40.60
4354;DHT22;11018;51.258;6.806;2022-12-29T09:48:36;12.50;40.10
4354;DHT22;11018;51.258;6.806;2022-12-29T09:51:08;12.60;39.90
4354;DHT22;11018;51.258;6.806;2022-12-29T09:53:41;12.60;39.80
4354;DHT22;11018;51.258;6.806;2022-12-29T09:56:15;12.60;38.90
4354;DHT22;11018;51.258;6.806;2022-12-29T09:58:54;12.60;38.60
4354;DHT22;11018;51.258;6.806;2022-12-29T10:01:31;12.60;37.00
4354;DHT22;11018;51.258;6.806;2022-12-29T10:03:59;12.70;37.00
4354;DHT22;11018;51.258;6.806;2022-12-29T10:06:51;12.70;35.70
4354;DHT22;11018;51.258;6.806;2022-12-29T10:09:38;12.80;36.00
4354;DHT22;11018;51.258;6.806;2022-12-29T10:18:18;12.90;32.20
4354;DHT22;11018;51.258;6.806;2022-12-29T10:21:08;12.90;32.60
4354;DHT22;11018;51.258;6.806;2022-12-29T10:23:42;12.80;33.50
4354;DHT22;11018;51.258;6.806;2022-12-29T10:26:14;13.00;32.80
4354;DHT22;11018;51.258;6.806;2022-12-29T10:28:48;13.00;32.60
4354;DHT22;11018;51.258;6.806;2022-12-29T10:31:25;13.00;32.30
4354;DHT22;11018;51.258;6.806;2022-12-29T10:33:58;13.10;32.60
4354;DHT22;11018;51.258;6.806;2022-12-29T10:36:34;13.10;31.80
4354;DHT22;11018;51.258;6.806;2022-12-29T10:42:04;13.20;31.40
4354;DHT22;11018;51.258;6.806;2022-12-29T10:44:33;13.30;31.80
4354;DHT22;11018;51.258;6.806;2022-12-29T10:47:04;13.20;31.60
4354;DHT22;11018;51.258;6.806;2022-12-29T10:49:32;13.20;31.90
4354;DHT22;11018;51.258;6.806;2022-12-29T10:52:03;13.10;31.90
4354;DHT22;11018;51.258;6.806;2022-12-29T10:54:39;13.10;31.80
4354;DHT22;11018;51.258;6.806;2022-12-29T10:57:25;13.20;32.20
4354;DHT22;11018;51.258;6.806;2022-12-29T10:59:51;13.20;31.60
4354;DHT22;11018;51.258;6.806;2022-12-29T11:03:06;13.20;31.70
4354;DHT22;11018;51.258;6.806;2022-12-29T11:06:40;13.20;31.20
4354;DHT22;11018;51.258;6.806;2022-12-29T11:08:52;13.20;31.00
4354;DHT22;11018;51.258;6.806;2022-12-29T11:11:27;13.10;31.50
4354;DHT22;11018;51.258;6.806;2022-12-29T11:14:14;13.20;30.90
4354;DHT22;11018;51.258;6.806;2022-12-29T11:16:41;13.10;31.80
4354;DHT22;11018;51.258;6.806;2022-12-29T11:19:23;13.10;31.20
4354;DHT22;11018;51.258;6.806;2022-12-29T11:21:49;13.00;31.00
4354;DHT22;11018;51.258;6.806;2022-12-29T11:24:24;13.00;30.70
4354;DHT22;11018;51.258;6.806;2022-12-29T11:26:52;13.00;31.10
4354;DHT22;11018;51.258;6.806;2022-12-29T11:29:29;12.90;31.20
4354;DHT22;11018;51.258;6.806;2022-12-29T11:32:17;12.90;31.10
4354;DHT22;11018;51.258;6.806;2022-12-29T11:34:44;12.90;31.20
4354;DHT22;11018;51.258;6.806;2022-12-29T11:37:16;12.90;31.80
4354;DHT22;11018;51.258;6.806;2022-12-29T11:39:53;12.90;31.40
4354;DHT22;11018;51.258;6.806;2022-12-29T11:42:31;12.80;32.40
4354;DHT22;11018;51.258;6.806;2022-12-29T11:45:14;12.80;31.40
4354;DHT22;11018;51.258;6.806;2022-12-29T11:47:44;12.90;31.50
4354;DHT22;11018;51.258;6.806;2022-12-29T11:50:17;12.90;30.70
4354;DHT22;11018;51.258;6.806;2022-12-29T11:52:44;12.90;30.60
4354;DHT22;11018;51.258;6.806;2022-12-29T11:55:18;12.90;30.70
4354;DHT22;11018;51.258;6.806;2022-12-29T11:57:46;12.90;30.90
4354;DHT22;11018;51.258;6.806;2022-12-29T12:00:20;12.90;31.10
4354;DHT22;11018;51.258;6.806;2022-12-29T12:03:04;12.90;31.00
4354;DHT22;11018;51.258;6.806;2022-12-29T12:06:16;12.90;31.00
4354;DHT22;11018;51.258;6.806;2022-12-29T12:11:37;12.90;30.90
4354;DHT22;11018;51.258;6.806;2022-12-29T12:14:38;12.90;31.10
4354;DHT22;11018;51.258;6.806;2022-12-29T12:17:16;12.80;31.10
4354;DHT22;11018;51.258;6.806;2022-12-29T12:22:40;12.80;31.30
4354;DHT22;11018;51.258;6.806;2022-12-29T12:25:25;12.80;31.50
4354;DHT22;11018;51.258;6.806;2022-12-29T12:28:01;12.70;31.30
4354;DHT22;11018;51.258;6.806;2022-12-29T12:30:38;12.60;32.00
4354;DHT22;11018;51.258;6.806;2022-12-29T12:33:24;12.60;32.00
4354;DHT22;11018;51.258;6.806;2022-12-29T12:36:28;12.60;31.70
4354;DHT22;11018;51.258;6.806;2022-12-29T12:39:11;12.60;32.30
4354;DHT22;11018;51.258;6.806;2022-12-29T12:50:41;12.50;32.30
4354;DHT22;11018;51.258;6.806;2022-12-29T12:53:30;12.50;32.00
4354;DHT22;11018;51.258;6.806;2022-12-29T13:11:55;12.50;32.20
4354;DHT22;11018;51.258;6.806;2022-12-29T13:14:40;12.40;32.70
4354;DHT22;11018;51.258;6.806;2022-12-29T13:17:34;12.40;33.20
4354;DHT22;11018;51.258;6.806;2022-12-29T13:22:56;12.40;33.70
4354;DHT22;11018;51.258;6.806;2022-12-29T13:25:42;12.40;34.00
4354;DHT22;11018;51.258;6.806;2022-12-29T13:36:37;12.40;34.40
4354;DHT22;11018;51.258;6.806;2022-12-29T13:41:56;12.50;34.30
4354;DHT22;11018;51.258;6.806;2022-12-29T13:44:44;12.40;34.50
4354;DHT22;11018;51.258;6.806;2022-12-29T13:47:27;12.40;34.30
4354;DHT22;11018;51.258;6.806;2022-12-29T13:49:56;12.50;33.90
4354;DHT22;11018;51.258;6.806;2022-12-29T13:52:34;12.40;33.00
4354;DHT22;11018;51.258;6.806;2022-12-29T14:00:19;12.20;33.50
4354;DHT22;11018;51.258;6.806;2022-12-29T14:07:44;12.30;32.50
4354;DHT22;11018;51.258;6.806;2022-12-29T14:10:45;12.30;31.80
4354;DHT22;11018;51.258;6.806;2022-12-29T14:13:17;12.30;32.50
4354;DHT22;11018;51.258;6.806;2022-12-29T14:15:46;12.30;32.10
4354;DHT22;11018;51.258;6.806;2022-12-29T14:18:23;12.30;32.10
4354;DHT22;11018;51.258;6.806;2022-12-29T14:23:43;12.30;32.30
4354;DHT22;11018;51.258;6.806;2022-12-29T14:28:55;12.20;32.50
4354;DHT22;11018;51.258;6.806;2022-12-29T14:36:41;12.20;32.90
4354;DHT22;11018;51.258;6.806;2022-12-29T14:45:19;12.20;32.80
4354;DHT22;11018;51.258;6.806;2022-12-29T14:47:50;12.10;33.00
4354;DHT22;11018;51.258;6.806;2022-12-29T14:50:22;12.10;33.70
4354;DHT22;11018;51.258;6.806;2022-12-29T14:52:58;12.10;32.90
4354;DHT22;11018;51.258;6.806;2022-12-29T14:58:21;11.90;33.40
4354;DHT22;11018;51.258;6.806;2022-12-29T15:00:48;12.00;33.80
4354;DHT22;11018;51.258;6.806;2022-12-29T15:03:29;12.00;33.70
4354;DHT22;11018;51.258;6.806;2022-12-29T15:06:08;11.90;33.70
4354;DHT22;11018;51.258;6.806;2022-12-29T15:11:41;11.80;33.90
4354;DHT22;11018;51.258;6.806;2022-12-29T15:16:54;11.80;34.10
4354;DHT22;11018;51.258;6.806;2022-12-29T15:19:24;11.80;34.80
4354;DHT22;11018;51.258;6.806;2022-12-29T15:21:50;11.70;35.00
4354;DHT22;11018;51.258;6.806;2022-12-29T15:24:15;11.70;35.00
4354;DHT22;11018;51.258;6.806;2022-12-29T15:26:46;11.70;34.80
4354;DHT22;11018;51.258;6.806;2022-12-29T15:29:40;11.70;34.60
4354;DHT22;11018;51.258;6.806;2022-12-29T15:34:41;11.60;35.20
4354;DHT22;11018;51.258;6.806;2022-12-29T15:37:07;11.60;35.30
4354;DHT22;11018;51.258;6.806;2022-12-29T15:39:33;11.50;35.50
4354;DHT22;11018;51.258;6.806;2022-12-29T15:42:31;11.50;36.00
4354;DHT22;11018;51.258;6.806;2022-12-29T15:45:00;11.50;35.90
4354;DHT22;11018;51.258;6.806;2022-12-29T15:47:29;11.40;36.00
4354;DHT22;11018;51.258;6.806;2022-12-29T15:52:27;11.20;37.00
4354;DHT22;11018;51.258;6.806;2022-12-29T15:54:54;11.10;36.80
4354;DHT22;11018;51.258;6.806;2022-12-29T15:57:28;11.20;36.80
4354;DHT22;11018;51.258;6.806;2022-12-29T15:59:54;11.20;36.60
4354;DHT22;11018;51.258;6.806;2022-12-29T16:02:22;11.30;36.60
4354;DHT22;11018;51.258;6.806;2022-12-29T16:04:49;11.30;36.70
4354;DHT22;11018;51.258;6.806;2022-12-29T16:07:27;11.20;37.30
4354;DHT22;11018;51.258;6.806;2022-12-29T16:10:03;11.20;36.90
4354;DHT22;11018;51.258;6.806;2022-12-29T16:12:34;11.20;37.00
4354;DHT22;11018;51.258;6.806;2022-12-29T16:15:03;11.20;37.30
4354;DHT22;11018;51.258;6.806;2022-12-29T16:17:33;11.20;37.10
4354;DHT22;11018;51.258;6.806;2022-12-29T16:20:02;11.20;37.20
4354;DHT22;11018;51.258;6.806;2022-12-29T16:22:33;11.20;36.90
4354;DHT22;11018;51.258;6.806;2022-12-29T16:27:45;11.10;36.00
4354;DHT22;11018;51.258;6.806;2022-12-29T16:30:20;11.00;36.00
4354;DHT22;11018;51.258;6.806;2022-12-29T16:32:48;10.90;36.50
4354;DHT22;11018;51.258;6.806;2022-12-29T16:35:25;10.90;37.00
4354;DHT22;11018;51.258;6.806;2022-12-29T16:38:16;10.80;37.20
4354;DHT22;11018;51.258;6.806;2022-12-29T16:40:51;10.90;37.10
4354;DHT22;11018;51.258;6.806;2022-12-29T16:43:23;10.90;37.10
4354;DHT22;11018;51.258;6.806;2022-12-29T16:48:20;11.00;36.20
4354;DHT22;11018;51.258;6.806;2022-12-29T16:50:46;11.00;36.00
4354;DHT22;11018;51.258;6.806;2022-12-29T16:55:47;11.00;35.90
4354;DHT22;11018;51.258;6.806;2022-12-29T16:58:19;11.00;36.00
4354;DHT22;11018;51.258;6.806;2022-12-29T17:00:46;11.00;35.80
4354;DHT22;11018;51.258;6.806;2022-12-29T17:03:12;11.00;35.80
4354;DHT22;11018;51.258;6.806;2022-12-29T17:05:38;11.00;36.00
4354;DHT22;11018;51.258;6.806;2022-12-29T17:08:19;11.00;35.60
4354;DHT22;11018;51.258;6.806;2022-12-29T17:10:52;11.00;35.50
4354;DHT22;11018;51.258;6.806;2022-12-29T17:13:38;11.00;36.10
4354;DHT22;11018;51.258;6.806;2022-12-29T17:16:05;11.00;36.30
4354;DHT22;11018;51.258;6.806;2022-12-29T17:18:33;10.90;37.00
4354;DHT22;11018;51.258;6.806;2022-12-29T17:20:59;11.00;37.00
4354;DHT22;11018;51.258;6.806;2022-12-29T17:23:24;11.00;37.30
4354;DHT22;11018;51.258;6.806;2022-12-29T17:25:51;10.90;37.20
4354;DHT22;11018;51.258;6.806;2022-12-29T17:28:27;10.90;37.20
4354;DHT22;11018;51.258;6.806;2022-12-29T17:30:58;10.90;37.60
4354;DHT22;11018;51.258;6.806;2022-12-29T17:33:25;10.90;38.20
4354;DHT22;11018;51.258;6.806;2022-12-29T17:35:50;10.90;39.50
4354;DHT22;11018;51.258;6.806;2022-12-29T17:38:21;10.90;39.10
4354;DHT22;11018;51.258;6.806;2022-12-29T17:40:48;10.80;40.50
4354;DHT22;11018;51.258;6.806;2022-12-29T17:43:14;10.80;40.20
4354;DHT22;11018;51.258;6.806;2022-12-29T17:45:41;10.80;41.30
4354;DHT22;11018;51.258;6.806;2022-12-29T17:48:12;10.90;42.50
4354;DHT22;11018;51.258;6.806;2022-12-29T17:50:38;10.70;49.20
4354;DHT22;11018;51.258;6.806;2022-12-29T17:53:06;10.30;52.80
4354;DHT22;11018;51.258;6.806;2022-12-29T17:55:35;10.00;58.10
4354;DHT22;11018;51.258;6.806;2022-12-29T17:58:00;9.80;63.00
4354;DHT22;11018;51.258;6.806;2022-12-29T18:00:28;9.60;66.40
4354;DHT22;11018;51.258;6.806;2022-12-29T18:02:56;9.40;65.80
4354;DHT22;11018;51.258;6.806;2022-12-29T18:05:26;9.30;68.00
4354;DHT22;11018;51.258;6.806;2022-12-29T18:07:53;9.20;69.50
4354;DHT22;11018;51.258;6.806;2022-12-29T18:10:21;9.10;68.90
4354;DHT22;11018;51.258;6.806;2022-12-29T18:12:49;9.00;69.90
4354;DHT22;11018;51.258;6.806;2022-12-29T18:15:19;8.80;73.40
4354;DHT22;11018;51.258;6.806;2022-12-29T18:17:45;8.70;73.80